Time;durP1;ratioP1;P1;durP2;ratioP2;P2;SDS_P1;SDS_P2;PMS_P1;PMS_P2;Temp;Humidity;BMP_temperature;BMP_pressure;BME280_temperature;BME280_humidity;BME280_pressure;Samples;Min_cycle;Max_cycle;Signal;HPM_P1;HPM_P2
2021/08/16 00:01:49;;;;;;;26.15;11.22;;;;;;;16.15;100.00;100910.73;1782863;79;20968;-77
2021/08/16 00:04:15;;;;;;;33.67;12.15;;;;;;;16.13;100.00;100913.73;1783179;79;21243;-76
2021/08/16 00:06:41;;;;;;;32.93;12.45;;;;;;;16.06;100.00;100913.28;1782856;79;20951;-77
2021/08/16 00:09:08;;;;;;;31.48;11.43;;;;;;;16.01;100.00;100916.59;1783065;79;20920;-77
2021/08/16 00:11:35;;;;;;;25.20;10.35;;;;;;;15.96;100.00;100918.81;1782994;79;21516;-74
2021/08/16 00:14:02;;;;;;;27.75;10.60;;;;;;;15.93;100.00;100918.02;1783528;79;20983;-77
2021/08/16 00:16:31;;;;;;;35.48;11.60;;;;;;;15.87;100.00;100915.91;1777917;79;21000;-78
2021/08/16 00:18:57;;;;;;;32.35;11.75;;;;;;;15.85;100.00;100921.36;1777706;79;20992;-77
2021/08/16 00:21:24;;;;;;;30.40;11.73;;;;;;;15.84;100.00;100909.69;1777687;80;20967;-77
2021/08/16 00:23:50;;;;;;;27.35;11.43;;;;;;;15.81;100.00;100916.25;1777700;80;21036;-77
2021/08/16 00:26:16;;;;;;;34.63;12.25;;;;;;;15.77;100.00;100908.42;1776464;80;20991;-76
2021/08/16 00:28:42;;;;;;;25.92;11.55;;;;;;;15.75;100.00;100911.41;1777733;79;20947;-77
2021/08/16 00:31:08;;;;;;;30.37;11.43;;;;;;;15.72;100.00;100911.18;1777529;80;20873;-77
2021/08/16 00:33:34;;;;;;;26.23;11.10;;;;;;;15.65;100.00;100915.56;1777531;79;20989;-77
2021/08/16 00:36:01;;;;;;;26.12;11.15;;;;;;;15.59;100.00;100915.35;1777568;79;20987;-77
2021/08/16 00:38:27;;;;;;;34.27;12.88;;;;;;;15.54;100.00;100906.69;1777775;79;21555;-77
2021/08/16 00:40:54;;;;;;;31.65;11.43;;;;;;;15.55;100.00;100904.77;1777764;79;21039;-83
2021/08/16 00:43:20;;;;;;;30.92;12.88;;;;;;;15.51;100.00;100904.54;1777563;79;20956;-78
2021/08/16 00:45:46;;;;;;;29.77;12.10;;;;;;;15.50;100.00;100904.81;1767095;80;20892;-77
2021/08/16 00:48:13;;;;;;;34.18;12.70;;;;;;;15.45;100.00;100905.68;1777753;80;21471;-77
2021/08/16 00:50:40;;;;;;;40.30;13.65;;;;;;;15.45;100.00;100905.68;1777675;80;21606;-78
2021/08/16 00:53:06;;;;;;;37.20;14.13;;;;;;;15.42;100.00;100908.97;1777478;79;20972;-76
2021/08/16 00:55:34;;;;;;;36.50;13.72;;;;;;;15.37;100.00;100915.80;1777611;79;21004;-77
2021/08/16 00:58:03;;;;;;;33.30;13.48;;;;;;;15.24;100.00;100896.09;1776596;79;21028;-78
2021/08/16 01:00:29;;;;;;;32.95;13.53;;;;;;;15.24;100.00;100896.09;1777524;80;20992;-74
2021/08/16 01:02:55;;;;;;;32.67;13.22;;;;;;;15.32;100.00;100907.67;1777705;79;20952;-77
2021/08/16 01:05:21;;;;;;;39.55;12.85;;;;;;;15.30;100.00;100910.69;1772099;80;21447;-76
2021/08/16 01:07:49;;;;;;;31.45;12.43;;;;;;;15.25;100.00;100903.12;1772012;81;20958;-76
2021/08/16 01:10:19;;;;;;;42.53;13.13;;;;;;;15.23;100.00;100906.11;1772191;81;21487;-77
2021/08/16 01:12:45;;;;;;;31.55;12.78;;;;;;;15.23;100.00;100908.83;1771921;81;21148;-79
2021/08/16 01:15:14;;;;;;;38.15;13.20;;;;;;;15.17;100.00;100901.81;1771756;81;21018;-76
2021/08/16 01:17:43;;;;;;;31.37;13.15;;;;;;;15.15;100.00;100901.31;1771834;81;21104;-77
2021/08/16 01:20:13;;;;;;;37.50;14.05;;;;;;;15.12;100.00;100905.40;1714272;83;21070;-78
2021/08/16 01:22:40;;;;;;;41.63;15.28;;;;;;;15.12;100.00;100908.11;1714280;83;21054;-78
2021/08/16 01:25:09;;;;;;;39.08;15.70;;;;;;;15.09;100.00;100905.13;1714545;83;21041;-77
2021/08/16 01:27:36;;;;;;;39.83;14.10;;;;;;;15.07;100.00;100905.98;1714271;83;21514;-77
2021/08/16 01:30:05;;;;;;;33.88;14.85;;;;;;;15.05;100.00;100908.95;1714800;83;21254;-77
2021/08/16 01:32:32;;;;;;;41.68;15.00;;;;;;;14.98;100.00;100910.64;1714132;83;21081;-76
2021/08/16 01:34:57;;;;;;;38.50;14.95;;;;;;;14.97;100.00;100904.13;1690633;83;21015;-76
2021/08/16 01:37:23;;;;;;;40.17;15.30;;;;;;;14.93;100.00;100907.95;1716840;83;20992;-77
2021/08/16 01:39:49;;;;;;;35.17;14.93;;;;;;;14.88;100.00;100918.02;1717016;83;20875;-77
2021/08/16 01:42:15;;;;;;;39.98;16.00;;;;;;;14.85;100.00;100913.96;1717058;83;21379;-76
2021/08/16 01:44:41;;;;;;;36.40;14.55;;;;;;;14.83;100.00;100917.52;1717202;83;20958;-77
2021/08/16 01:47:07;;;;;;;40.88;15.58;;;;;;;14.82;100.00;100917.78;1717026;83;21643;-76
2021/08/16 01:49:33;;;;;;;45.23;16.67;;;;;;;14.81;100.00;100917.53;1717020;83;20979;-83
2021/08/16 01:51:59;;;;;;;51.30;18.05;;;;;;;14.80;100.00;100919.99;1717152;83;20907;-77
2021/08/16 01:54:24;;;;;;;45.50;16.52;;;;;;;14.79;100.00;100911.02;1717139;83;21091;-75
2021/08/16 01:56:50;;;;;;;43.02;17.45;;;;;;;14.76;100.00;100910.22;1716909;83;21022;-77
2021/08/16 01:59:16;;;;;;;53.48;19.55;;;;;;;14.75;100.00;100907.25;1717207;83;20899;-75
2021/08/16 02:01:42;;;;;;;49.77;19.05;;;;;;;14.74;100.00;100907.80;1717406;83;20863;-77
2021/08/16 02:04:08;;;;;;;49.50;17.87;;;;;;;14.71;100.00;100907.55;1717102;83;21716;-78
2021/08/16 02:06:34;;;;;;;48.48;18.52;;;;;;;14.71;100.00;100913.79;1717093;83;22304;-76
2021/08/16 02:09:00;;;;;;;55.88;19.48;;;;;;;14.68;100.00;100916.25;1716539;83;20879;-79
2021/08/16 02:11:26;;;;;;;44.65;17.85;;;;;;;14.62;100.00;100910.05;1715510;83;20876;-76
2021/08/16 02:13:52;;;;;;;47.43;18.57;;;;;;;14.59;100.00;100917.90;1716984;83;21070;-78
2021/08/16 02:16:18;;;;;;;59.05;19.73;;;;;;;14.58;100.00;100913.03;1718732;82;21629;-76
2021/08/16 02:18:45;;;;;;;47.35;18.17;;;;;;;14.59;100.00;100916.55;1746791;80;21127;-76
2021/08/16 02:21:11;;;;;;;56.60;19.20;;;;;;;14.59;100.00;100917.38;1749129;80;20995;-76
2021/08/16 02:23:37;;;;;;;56.85;18.25;;;;;;;14.56;100.00;100916.58;1751733;82;21490;-77
2021/08/16 02:26:03;;;;;;;46.13;17.77;;;;;;;14.53;100.00;100919.30;1751662;81;20981;-81
2021/08/16 02:28:30;;;;;;;50.55;17.30;;;;;;;14.52;100.00;100910.88;1751652;81;21062;-78
2021/08/16 02:30:56;;;;;;;47.35;17.37;;;;;;;14.50;100.00;100917.12;1751734;81;21144;-76
2021/08/16 02:33:21;;;;;;;44.73;17.05;;;;;;;14.46;100.00;100922.00;1751425;81;20844;-77
2021/08/16 02:35:47;;;;;;;42.75;17.30;;;;;;;14.44;100.00;100926.37;1751803;81;20833;-75
2021/08/16 02:38:13;;;;;;;47.53;17.42;;;;;;;14.49;100.00;100929.03;1751879;82;20869;-84
2021/08/16 02:40:40;;;;;;;40.03;16.02;;;;;;;14.49;100.00;100927.67;1751671;81;21045;-77
2021/08/16 02:43:06;;;;;;;43.08;16.55;;;;;;;14.45;100.00;100929.33;1751876;81;21066;-77
2021/08/16 02:45:32;;;;;;;48.52;16.90;;;;;;;14.43;100.00;100926.08;1751745;81;20905;-77
2021/08/16 02:47:59;;;;;;;47.80;18.15;;;;;;;14.42;100.00;100920.95;1751828;82;21066;-77
2021/08/16 02:50:25;;;;;;;44.38;16.93;;;;;;;14.44;100.00;100926.37;1751704;81;21019;-75
2021/08/16 02:52:54;;;;;;;47.95;17.75;;;;;;;14.48;100.00;100927.42;1751962;81;21031;-77
2021/08/16 02:55:20;;;;;;;44.63;17.48;;;;;;;14.47;100.00;100928.52;1751483;82;21807;-77
2021/08/16 02:57:46;;;;;;;52.35;18.07;;;;;;;14.47;100.00;100932.59;1751874;81;21016;-80
2021/08/16 03:00:14;;;;;;;39.10;16.62;;;;;;;14.56;100.00;100931.50;1751499;80;21487;-77
2021/08/16 03:02:41;;;;;;;39.42;16.65;;;;;;;14.60;100.00;100935.27;1751540;81;21531;-77
2021/08/16 03:05:08;;;;;;;47.27;16.45;;;;;;;14.66;100.00;100935.51;1751533;82;21472;-76
2021/08/16 03:07:34;;;;;;;43.00;17.07;;;;;;;14.63;100.00;100940.13;1751823;80;21472;-77
2021/08/16 03:10:00;;;;;;;45.10;17.00;;;;;;;14.69;100.00;100950.42;1751826;82;20872;-77
2021/08/16 03:12:26;;;;;;;48.70;17.35;;;;;;;14.76;100.00;100940.06;1751921;81;21049;-76
2021/08/16 03:14:52;;;;;;;40.92;17.37;;;;;;;14.87;100.00;100941.64;1751664;82;20856;-78
2021/08/16 03:17:18;;;;;;;42.03;16.40;;;;;;;14.97;100.00;100945.66;1752226;81;21657;-76
2021/08/16 03:19:44;;;;;;;44.83;16.50;;;;;;;15.05;100.00;100947.52;1749954;82;21159;-74
2021/08/16 03:22:09;;;;;;;41.13;15.90;;;;;;;15.17;100.00;100940.62;1751441;81;20951;-75
2021/08/16 03:24:36;;;;;;;48.23;16.77;;;;;;;15.31;100.00;100940.81;1773093;79;20884;-74
2021/08/16 03:27:02;;;;;;;40.15;16.77;;;;;;;15.41;100.00;100942.11;1783008;79;21456;-77
2021/08/16 03:29:28;;;;;;;41.20;16.48;;;;;;;15.55;100.00;100946.33;1782767;79;20984;-77
2021/08/16 03:31:53;;;;;;;38.70;15.93;;;;;;;15.70;100.00;100945.41;1782944;80;21970;-76
2021/08/16 03:34:19;;;;;;;43.65;16.42;;;;;;;15.83;100.00;100945.31;1781966;79;20837;-80
2021/08/16 03:36:45;;;;;;;40.65;16.85;;;;;;;15.99;100.00;100941.89;1782441;80;20833;-76
2021/08/16 03:39:11;;;;;;;37.00;15.30;;;;;;;16.14;100.00;100947.16;1782913;79;21574;-77
2021/08/16 03:41:38;;;;;;;31.55;14.85;;;;;;;16.33;100.00;100949.41;1783118;79;20999;-76
2021/08/16 03:44:04;;;;;;;38.23;15.10;;;;;;;16.61;100.00;100955.05;1784421;80;21232;-78
2021/08/16 03:46:30;;;;;;;30.62;14.25;;;;;;;17.13;100.00;100942.96;1783337;79;20996;-77
2021/08/16 03:48:56;;;;;;;35.90;13.72;;;;;;;17.92;100.00;100952.59;1783089;79;20963;-76
2021/08/16 03:51:22;;;;;;;29.48;13.70;;;;;;;18.69;100.00;100947.80;1782864;79;20825;-77
2021/08/16 03:53:48;;;;;;;37.75;13.80;;;;;;;19.39;100.00;100947.09;1782899;80;20984;-77
2021/08/16 03:56:14;;;;;;;39.35;14.18;;;;;;;20.11;100.00;100939.23;1783172;79;21391;-83
2021/08/16 03:58:41;;;;;;;29.50;12.53;;;;;;;20.93;100.00;100943.19;1783089;80;20992;-78
2021/08/16 04:01:09;;;;;;;32.33;13.48;;;;;;;21.62;100.00;100937.44;1780962;80;21007;-78
2021/08/16 04:03:36;;;;;;;29.52;13.18;;;;;;;22.36;100.00;100939.01;1783123;79;21067;-75
2021/08/16 04:06:02;;;;;;;30.85;12.95;;;;;;;23.17;100.00;100936.44;1782547;79;21023;-78
2021/08/16 04:08:28;;;;;;;30.85;12.35;;;;;;;24.03;100.00;100932.58;1783134;80;21086;-78
2021/08/16 04:10:54;;;;;;;26.95;12.60;;;;;;;24.92;100.00;100932.67;1772312;80;20840;-79
2021/08/16 04:13:20;;;;;;;26.50;12.13;;;;;;;25.71;100.00;100935.47;1783128;79;20919;-79
2021/08/16 04:15:45;;;;;;;24.23;10.95;;;;;;;26.39;100.00;100935.80;1782295;80;20998;-78
2021/08/16 04:18:11;;;;;;;26.77;10.20;;;;;;;26.94;100.00;100935.26;1766262;80;20873;-79
2021/08/16 04:20:37;;;;;;;23.70;9.65;;;;;;;27.53;100.00;100936.06;1782527;79;21080;-80
2021/08/16 04:23:04;;;;;;;25.65;9.00;;;;;;;28.21;94.06;100940.06;1777640;80;21362;-78
2021/08/16 04:25:30;;;;;;;14.20;7.62;;;;;;;28.49;82.73;100941.89;1777748;80;21039;-79
2021/08/16 04:27:56;;;;;;;21.20;9.55;;;;;;;28.68;74.88;100940.99;1777837;80;21014;-77
2021/08/16 04:30:22;;;;;;;22.25;8.63;;;;;;;28.77;67.90;100947.65;1777766;80;20912;-79
2021/08/16 04:32:49;;;;;;;19.00;8.53;;;;;;;28.95;64.47;100942.34;1777722;79;21567;-79
2021/08/16 04:35:15;;;;;;;16.48;8.08;;;;;;;29.23;62.52;100948.05;1777709;80;21027;-74
2021/08/16 04:37:42;;;;;;;19.37;8.98;;;;;;;29.59;59.41;100938.94;1777817;80;20959;-76
2021/08/16 04:40:10;;;;;;;18.95;8.33;;;;;;;30.05;59.78;100951.68;1777867;80;20987;-76
2021/08/16 04:42:37;;;;;;;20.02;8.23;;;;;;;30.70;58.12;100953.75;1767028;80;20985;-75
2021/08/16 04:45:04;;;;;;;20.10;8.65;;;;;;;31.39;55.95;100952.13;1777408;80;21108;-79
2021/08/16 04:47:31;;;;;;;19.70;8.35;;;;;;;32.02;51.62;100955.42;1777753;80;21031;-79
2021/08/16 04:49:57;;;;;;;19.27;8.83;;;;;;;32.74;51.65;100949.18;1777556;80;21115;-78
2021/08/16 04:52:24;;;;;;;19.40;9.20;;;;;;;33.42;47.87;100948.91;1777850;80;20961;-78
2021/08/16 04:54:51;;;;;;;37.28;13.55;;;;;;;33.95;44.14;100949.16;1777886;80;20976;-77
2021/08/16 04:57:33;;;;;;;38.58;17.30;;;;;;;33.92;43.05;100956.97;1777791;79;21881;-78
2021/08/16 05:00:00;;;;;;;47.03;19.85;;;;;;;33.86;41.20;100954.42;1776993;80;21008;-75
2021/08/16 05:02:26;;;;;;;53.40;22.40;;;;;;;33.73;40.58;100958.91;1777583;80;21070;-74
2021/08/16 05:04:58;;;;;;;52.50;24.92;;;;;;;33.55;40.08;100957.62;1777542;80;20939;-79
2021/08/16 05:07:23;;;;;;;58.87;25.27;;;;;;;33.53;41.17;100965.02;1777514;79;20989;-78
2021/08/16 05:09:51;;;;;;;51.10;24.82;;;;;;;33.97;39.25;100966.91;1777728;80;21068;-78
2021/08/16 05:12:18;;;;;;;64.27;26.40;;;;;;;33.72;39.24;100967.11;1777673;80;21015;-76
2021/08/16 05:14:44;;;;;;;73.90;30.08;;;;;;;33.78;39.69;100965.47;1777550;79;21469;-81
2021/08/16 05:17:10;;;;;;;72.87;28.07;;;;;;;34.23;38.39;100965.52;1748844;81;20991;-78
2021/08/16 05:19:38;;;;;;;67.12;25.48;;;;;;;34.19;38.02;100971.16;1751301;81;21042;-77
2021/08/16 05:22:08;;;;;;;60.25;25.02;;;;;;;34.59;37.20;100973.80;1751196;82;21119;-74
2021/08/16 05:24:35;;;;;;;42.67;16.57;;;;;;;35.03;36.94;100969.88;1751431;82;20995;-77
2021/08/16 05:27:02;;;;;;;23.52;12.85;;;;;;;35.52;36.43;100968.27;1752488;82;21039;-78
2021/08/16 05:29:28;;;;;;;16.67;9.05;;;;;;;36.47;35.46;100966.52;1751241;81;21788;-78
2021/08/16 05:31:55;;;;;;;17.85;8.40;;;;;;;36.64;33.21;100973.68;1751173;82;21038;-79
2021/08/16 05:34:21;;;;;;;17.65;8.40;;;;;;;36.54;32.59;100967.05;1751093;82;21984;-78
2021/08/16 05:36:47;;;;;;;11.90;7.50;;;;;;;36.23;32.64;100967.78;1751226;82;21468;-79
2021/08/16 05:39:13;;;;;;;33.55;8.15;;;;;;;36.30;32.48;100970.48;1751474;82;21633;-82
2021/08/16 05:41:39;;;;;;;11.43;7.17;;;;;;;36.34;31.94;100976.20;1751370;82;20864;-78
2021/08/16 05:44:05;;;;;;;14.05;7.33;;;;;;;36.61;31.74;100977.52;1751064;82;21621;-76
2021/08/16 05:46:31;;;;;;;12.30;6.83;;;;;;;37.08;31.90;100974.43;1751333;82;21047;-78
2021/08/16 05:49:00;;;;;;;11.20;7.12;;;;;;;37.06;30.51;100973.44;1776546;80;21692;-77
2021/08/16 05:51:26;;;;;;;16.00;6.60;;;;;;;37.13;30.97;100975.33;1782812;80;20960;-77
2021/08/16 05:53:52;;;;;;;11.33;6.20;;;;;;;37.69;31.29;100969.05;1782880;80;20861;-79
2021/08/16 05:56:18;;;;;;;17.05;8.33;;;;;;;38.26;30.33;100969.66;1782666;80;20885;-78
2021/08/16 05:58:44;;;;;;;13.30;6.58;;;;;;;38.70;29.48;100966.50;1782769;80;21585;-85
2021/08/16 06:01:10;;;;;;;10.15;7.17;;;;;;;39.00;28.58;100973.08;1771709;80;21499;-78
2021/08/16 06:03:36;;;;;;;13.03;8.23;;;;;;;38.67;28.27;100978.04;1782888;79;20873;-76
2021/08/16 06:06:02;;;;;;;16.97;8.83;;;;;;;38.84;28.23;100980.97;1782756;80;21092;-79
2021/08/16 06:08:28;;;;;;;14.50;8.13;;;;;;;38.87;28.13;100984.96;1782869;80;20884;-78
2021/08/16 06:10:53;;;;;;;14.45;7.25;;;;;;;39.34;28.30;100985.81;1782707;80;21558;-78
2021/08/16 06:13:19;;;;;;;13.25;7.15;;;;;;;39.85;27.46;100980.80;1782993;80;20868;-77
2021/08/16 06:15:45;;;;;;;13.58;6.97;;;;;;;39.90;27.04;100980.23;1766261;80;20904;-74
2021/08/16 06:18:11;;;;;;;10.80;6.25;;;;;;;40.31;26.81;100981.29;1776369;80;20892;-78
2021/08/16 06:20:37;;;;;;;11.85;6.30;;;;;;;40.52;25.92;100989.00;1777533;80;20825;-76
2021/08/16 06:23:03;;;;;;;9.83;5.92;;;;;;;40.10;25.93;100984.20;1773641;80;21943;-78
2021/08/16 06:25:29;;;;;;;10.82;6.87;;;;;;;40.00;26.07;100988.95;1777033;80;21035;-82
2021/08/16 06:27:55;;;;;;;9.88;6.33;;;;;;;40.23;25.54;100987.80;1777590;80;21605;-76
2021/08/16 06:30:21;;;;;;;9.03;6.20;;;;;;;40.68;25.91;100983.80;1792701;79;20888;-77
2021/08/16 06:32:47;;;;;;;9.65;6.53;;;;;;;41.34;25.07;100982.98;1766869;80;21063;-77
2021/08/16 06:35:14;;;;;;;7.78;6.15;;;;;;;41.74;24.13;100984.40;1777761;80;21965;-78
2021/08/16 06:37:42;;;;;;;8.95;5.92;;;;;;;41.30;23.24;100987.38;1777208;80;21079;-79
2021/08/16 06:40:10;;;;;;;10.38;6.20;;;;;;;40.40;23.73;100987.80;1777412;80;21008;-75
2021/08/16 06:42:36;;;;;;;13.00;6.20;;;;;;;40.23;23.16;100983.56;1777730;80;21020;-78
2021/08/16 06:45:04;;;;;;;7.17;4.72;;;;;;;39.95;22.92;100987.51;1777275;80;20969;-78
2021/08/16 06:47:30;;;;;;;9.60;4.92;;;;;;;39.79;23.02;100989.67;1777625;80;20984;-78
2021/08/16 06:49:56;;;;;;;8.45;4.85;;;;;;;39.79;22.18;100986.84;1777450;80;20861;-76
2021/08/16 06:52:21;;;;;;;12.20;5.20;;;;;;;39.43;22.50;100989.37;1793009;79;20881;-78
2021/08/16 06:54:47;;;;;;;8.40;5.00;;;;;;;39.61;21.86;100988.80;1788779;79;20888;-78
2021/08/16 06:57:13;;;;;;;7.55;5.08;;;;;;;39.42;21.80;100990.00;1777584;80;20857;-81
2021/08/16 06:59:39;;;;;;;8.75;4.58;;;;;;;39.32;22.18;100988.91;1777580;80;21118;-78
2021/08/16 07:02:05;;;;;;;8.35;4.72;;;;;;;39.50;21.43;100991.95;1777746;80;21453;-78
2021/08/16 07:04:33;;;;;;;9.08;4.53;;;;;;;39.04;21.82;100989.91;1777579;80;20881;-78
2021/08/16 07:06:59;;;;;;;10.85;5.35;;;;;;;38.87;21.75;100993.41;1777713;80;20991;-78
2021/08/16 07:09:25;;;;;;;14.40;6.42;;;;;;;39.19;22.79;100995.30;1779104;80;20943;-80
2021/08/16 07:11:51;;;;;;;11.30;6.37;;;;;;;39.49;23.05;100987.56;1777786;80;21555;-78
2021/08/16 07:14:17;;;;;;;17.40;6.37;;;;;;;40.03;23.45;100984.43;1779914;79;20880;-77
2021/08/16 07:16:43;;;;;;;8.50;5.40;;;;;;;41.02;22.72;100981.52;1777431;80;21058;-78
2021/08/16 07:19:12;;;;;;;12.78;5.22;;;;;;;41.67;20.96;100986.91;1777599;80;20998;-78
2021/08/16 07:21:38;;;;;;;5.08;4.33;;;;;;;41.38;20.23;100987.86;1777458;80;21036;-74
2021/08/16 07:24:05;;;;;;;6.37;4.85;;;;;;;40.80;20.99;100984.38;1777503;80;21109;-75
2021/08/16 07:26:31;;;;;;;10.80;4.85;;;;;;;40.84;20.80;100982.20;1777432;80;20964;-78
2021/08/16 07:28:57;;;;;;;10.95;5.08;;;;;;;41.44;20.56;100975.47;1777637;80;20936;-78
2021/08/16 07:31:23;;;;;;;7.65;5.22;;;;;;;41.60;19.77;100978.72;1780025;79;20838;-82
2021/08/16 07:33:51;;;;;;;5.97;4.92;;;;;;;41.10;19.58;100975.02;1777404;80;21140;-78
2021/08/16 07:36:17;;;;;;;9.13;4.75;;;;;;;40.64;20.87;100974.67;1777026;80;21915;-77
2021/08/16 07:38:43;;;;;;;12.73;4.70;;;;;;;40.94;20.04;100975.97;1760745;79;20940;-79
2021/08/16 07:41:09;;;;;;;7.42;4.37;;;;;;;41.83;19.72;100981.62;1736483;82;22442;-79
2021/08/16 07:43:35;;;;;;;20.97;5.00;;;;;;;41.30;18.89;100976.06;1746803;82;21082;-77
2021/08/16 07:46:01;;;;;;;6.70;4.28;;;;;;;40.70;19.56;100972.05;1746969;80;20865;-78
2021/08/16 07:48:26;;;;;;;7.85;3.90;;;;;;;40.53;19.71;100970.78;1746718;82;21688;-77
2021/08/16 07:50:52;;;;;;;13.68;4.35;;;;;;;40.21;19.96;100975.38;1746528;82;20907;-76
2021/08/16 07:53:18;;;;;;;6.42;4.20;;;;;;;40.59;19.92;100975.23;1746491;82;20876;-78
2021/08/16 07:55:44;;;;;;;8.90;4.30;;;;;;;40.62;20.00;100973.73;1746532;82;21075;-81
2021/08/16 07:58:11;;;;;;;8.68;3.42;;;;;;;40.92;20.05;100969.20;1746723;82;20960;-77
2021/08/16 08:00:36;;;;;;;6.30;3.98;;;;;;;41.40;19.58;100964.92;1746630;80;21152;-75
2021/08/16 08:03:02;;;;;;;6.72;4.28;;;;;;;41.45;19.27;100967.16;1746619;82;20864;-78
2021/08/16 08:05:28;;;;;;;8.48;4.60;;;;;;;40.80;19.41;100968.84;1746734;80;20888;-82
2021/08/16 08:07:54;;;;;;;6.53;4.25;;;;;;;40.07;19.67;100962.53;1746970;82;20974;-81
2021/08/16 08:10:21;;;;;;;7.87;4.33;;;;;;;40.54;20.19;100956.06;1746778;82;20849;-80
2021/08/16 08:12:49;;;;;;;12.78;4.90;;;;;;;41.15;20.01;100952.39;1746766;80;21382;-78
2021/08/16 08:15:16;;;;;;;14.40;4.30;;;;;;;40.90;19.62;100953.34;1761564;80;20996;-77
2021/08/16 08:17:42;;;;;;;8.08;3.92;;;;;;;40.91;19.78;100954.28;1746664;81;21500;-78
2021/08/16 08:20:10;;;;;;;5.70;4.00;;;;;;;41.11;19.63;100951.75;1746706;82;20988;-78
2021/08/16 08:22:36;;;;;;;8.85;4.15;;;;;;;41.50;19.42;100949.58;1746765;80;21015;-78
2021/08/16 08:25:03;;;;;;;8.05;3.72;;;;;;;41.61;18.85;100952.61;1746830;80;21874;-80
2021/08/16 08:27:30;;;;;;;5.40;4.08;;;;;;;41.67;19.47;100946.49;1747035;82;21023;-79
2021/08/16 08:29:56;;;;;;;4.97;4.10;;;;;;;41.40;19.31;100937.27;1746922;80;20972;-75
2021/08/16 08:32:21;;;;;;;6.25;4.30;;;;;;;41.35;19.45;100944.30;1746857;80;20959;-79
2021/08/16 08:34:47;;;;;;;6.22;4.47;;;;;;;41.50;19.56;100941.09;1746714;82;21030;-78
2021/08/16 08:37:14;;;;;;;6.55;4.08;;;;;;;41.26;19.55;100937.98;1746917;82;21155;-78
2021/08/16 08:39:45;;;;;;;3.92;3.50;;;;;;;40.92;19.85;100934.67;1746621;80;20987;-78
2021/08/16 08:42:14;;;;;;;4.15;3.37;;;;;;;41.13;19.82;100934.48;1746716;80;21476;-78
2021/08/16 08:44:42;;;;;;;5.15;3.30;;;;;;;41.94;19.46;100923.91;1746881;82;20984;-77
2021/08/16 08:47:08;;;;;;;6.80;4.67;;;;;;;42.69;18.88;100917.62;1736655;82;21012;-82
2021/08/16 08:49:35;;;;;;;5.67;4.22;;;;;;;42.45;19.89;100926.79;1748394;80;21286;-81
2021/08/16 08:52:02;;;;;;;9.40;5.00;;;;;;;43.15;20.19;100918.29;1747155;82;21040;-78
2021/08/16 08:54:28;;;;;;;10.38;4.37;;;;;;;43.44;18.95;100924.77;1736644;82;21023;-76
2021/08/16 08:56:56;;;;;;;7.20;4.15;;;;;;;42.67;18.85;100913.83;1746612;80;21000;-83
2021/08/16 08:59:23;;;;;;;9.28;4.50;;;;;;;42.15;18.21;100915.73;1746509;80;21071;-78
2021/08/16 09:01:56;;;;;;;9.08;4.42;;;;;;;41.58;19.37;100917.53;1745529;81;21089;-77
2021/08/16 09:04:23;;;;;;;11.25;4.37;;;;;;;41.46;19.81;100924.08;1746698;82;20996;-77
2021/08/16 09:06:50;;;;;;;8.70;4.28;;;;;;;40.88;20.22;100919.08;1746921;82;20944;-78
2021/08/16 09:09:16;;;;;;;6.67;4.55;;;;;;;40.82;20.15;100911.19;1746729;82;20992;-76
2021/08/16 09:11:49;;;;;;;7.67;4.50;;;;;;;41.08;19.99;100913.23;1746620;80;21270;-77
2021/08/16 09:14:16;;;;;;;7.42;4.62;;;;;;;41.48;19.55;100906.83;1718680;82;21323;-75
2021/08/16 09:16:48;;;;;;;7.50;4.40;;;;;;;41.82;19.45;100914.12;1744084;82;21038;-78
2021/08/16 09:19:21;;;;;;;12.03;4.50;;;;;;;41.50;19.55;100908.54;1742588;80;21512;-83
2021/08/16 09:22:01;;;;;;;10.88;4.70;;;;;;;41.26;20.18;100904.67;1737536;82;21008;-78
2021/08/16 09:24:28;;;;;;;10.25;4.45;;;;;;;41.38;20.29;100911.47;1710619;82;21526;-80
2021/08/16 09:27:04;;;;;;;14.50;4.75;;;;;;;41.40;20.34;100897.02;1737195;82;21183;-79
2021/08/16 09:29:30;;;;;;;7.95;4.67;;;;;;;41.52;19.74;100902.42;1733194;82;20999;-78
2021/08/16 09:32:01;;;;;;;11.68;4.00;;;;;;;40.91;20.06;100901.19;1737452;82;20988;-76
2021/08/16 09:34:41;;;;;;;8.38;4.25;;;;;;;40.42;20.41;100904.02;1737394;82;21100;-75
2021/08/16 09:37:26;;;;;;;11.18;4.15;;;;;;;40.72;20.25;100908.16;1709070;82;21031;-75
2021/08/16 09:40:01;;;;;;;7.37;3.85;;;;;;;40.33;20.29;100909.56;1737201;82;21220;-77
2021/08/16 09:42:27;;;;;;;6.15;3.40;;;;;;;40.28;20.65;100901.70;1713250;82;21013;-77
2021/08/16 09:44:54;;;;;;;7.20;3.75;;;;;;;40.28;19.94;100902.48;1737362;82;20952;-79
2021/08/16 09:47:21;;;;;;;8.13;3.40;;;;;;;40.16;20.07;100898.44;1737190;82;20964;-78
2021/08/16 09:50:01;;;;;;;10.90;4.20;;;;;;;39.38;21.00;100897.63;1737190;82;21633;-79
2021/08/16 09:52:32;;;;;;;6.97;3.22;;;;;;;38.94;21.29;100903.62;1748375;82;21031;-78
2021/08/16 09:54:59;;;;;;;7.37;3.50;;;;;;;39.03;20.85;100898.10;1710530;83;21066;-77
2021/08/16 09:57:27;;;;;;;10.55;4.10;;;;;;;38.98;21.03;100902.28;1703991;84;21016;-76
2021/08/16 09:59:56;;;;;;;15.20;6.92;;;;;;;38.57;21.66;100898.23;1708900;83;21034;-78
2021/08/16 10:02:26;;;;;;;10.03;4.65;;;;;;;37.89;22.48;100888.77;1699731;84;21126;-77
2021/08/16 10:04:57;;;;;;;9.93;5.30;;;;;;;37.39;23.27;100894.83;1699496;84;20976;-78
2021/08/16 10:07:30;;;;;;;12.25;4.05;;;;;;;36.89;23.49;100891.69;1710867;83;20963;-79
2021/08/16 10:10:01;;;;;;;8.58;3.98;;;;;;;36.95;23.48;100898.41;1738560;81;20992;-77
2021/08/16 10:12:31;;;;;;;7.85;3.83;;;;;;;36.52;23.91;100895.08;1718356;83;20978;-83
2021/08/16 10:14:59;;;;;;;8.60;4.12;;;;;;;36.29;24.27;100893.87;1754755;81;21039;-77
2021/08/16 10:17:37;;;;;;;9.68;3.80;;;;;;;36.18;24.59;100898.09;1713123;83;21066;-75
2021/08/16 10:20:06;;;;;;;7.28;3.60;;;;;;;36.35;24.57;100902.59;1746766;82;20992;-78
2021/08/16 10:22:38;;;;;;;9.95;3.72;;;;;;;36.73;23.94;100895.25;1715096;82;21083;-75
2021/08/16 10:25:14;;;;;;;5.97;3.40;;;;;;;36.73;22.80;100893.84;1615335;86;21106;-79
2021/08/16 10:27:41;;;;;;;6.35;3.52;;;;;;;36.46;23.17;100892.56;1561058;91;21540;-77
2021/08/16 10:30:16;;;;;;;10.85;4.05;;;;;;;36.06;22.98;100891.91;1565249;90;21174;-78
2021/08/16 10:32:42;;;;;;;10.82;3.90;;;;;;;35.64;23.39;100891.99;1544908;91;21063;-78
2021/08/16 10:35:13;;;;;;;6.75;3.27;;;;;;;35.38;23.45;100891.55;1549241;91;22227;-77
2021/08/16 10:37:45;;;;;;;5.47;2.90;;;;;;;35.63;24.64;100883.41;1570652;90;21540;-82
2021/08/16 10:40:22;;;;;;;5.60;3.20;;;;;;;36.26;23.94;100884.13;1556485;90;21046;-80
2021/08/16 10:42:51;;;;;;;7.12;3.10;;;;;;;36.61;23.17;100882.03;1568880;90;22060;-78
2021/08/16 10:45:33;;;;;;;8.70;3.50;;;;;;;36.68;23.49;100885.91;1575749;89;21084;-78
2021/08/16 10:48:01;;;;;;;;;;;;;;;36.65;23.95;100883.39;1534165;92;21649;-80
2021/08/16 10:50:27;;;;;;;9.15;3.52;;;;;;;36.87;22.86;100885.73;1529870;93;20332;-77
2021/08/16 10:53:04;;;;;;;8.50;3.37;;;;;;;37.00;23.10;100876.83;1532743;93;21173;-80
2021/08/16 10:55:38;;;;;;;7.03;3.35;;;;;;;37.03;23.21;100882.98;1465523;97;21201;-80
2021/08/16 10:58:12;;;;;;;11.30;3.55;;;;;;;36.23;23.33;100876.56;1423271;100;21314;-84
2021/08/16 11:00:40;;;;;;;11.38;3.42;;;;;;;35.61;23.63;100881.63;1420597;100;21177;-79
2021/08/16 11:03:07;;;;;;;11.03;3.87;;;;;;;35.32;24.27;100869.43;1384044;103;21128;-77
2021/08/16 11:05:37;;;;;;;6.95;3.60;;;;;;;35.16;25.05;100867.28;1383972;103;21124;-79
2021/08/16 11:08:06;;;;;;;7.85;3.25;;;;;;;35.45;24.69;100872.45;1384408;103;22005;-78
2021/08/16 11:10:45;;;;;;;12.23;3.77;;;;;;;35.21;24.59;100866.81;1384086;103;21655;-77
2021/08/16 11:13:17;;;;;;;8.45;3.20;;;;;;;35.18;24.59;100864.85;1384114;103;21174;-78